createdAt,value
2019-02-11T00:01:33.943Z,98781.64
2019-02-11T00:04:06.404Z,98785.94
2019-02-11T00:06:38.727Z,98779.83
2019-02-11T00:09:13.806Z,98785.48
2019-02-11T00:11:49.380Z,98781.55
2019-02-11T00:14:23.912Z,98781.58
2019-02-11T00:16:56.380Z,98779.44
2019-02-11T00:19:33.271Z,98777.64
2019-02-11T00:22:05.974Z,98778.95
2019-02-11T00:24:47.582Z,98782.00
2019-02-11T00:27:29.318Z,98776.38
2019-02-11T00:30:07.302Z,98778.06
2019-02-11T00:32:39.663Z,98778.08
2019-02-11T00:35:12.259Z,98781.58
2019-02-11T00:37:44.602Z,98785.92
2019-02-11T00:40:29.102Z,98788.97
2019-02-11T00:43:04.208Z,98788.95
2019-02-11T00:45:36.484Z,98795.09
2019-02-11T00:48:15.627Z,98791.66
2019-02-11T00:50:47.835Z,98797.36
2019-02-11T00:53:20.167Z,98801.77
2019-02-11T00:55:52.441Z,98810.06
2019-02-11T00:58:24.680Z,98805.70
2019-02-11T01:00:57.137Z,98817.05
2019-02-11T01:03:29.497Z,98817.91
2019-02-11T01:06:01.756Z,98820.08
2019-02-11T01:08:34.328Z,98826.19
2019-02-11T01:11:06.569Z,98827.02
2019-02-11T01:13:38.938Z,98822.19
2019-02-11T01:16:11.219Z,98822.58
2019-02-11T01:18:44.543Z,98824.30
2019-02-11T01:21:16.866Z,98824.29
2019-02-11T01:23:49.223Z,98819.02
2019-02-11T01:26:21.571Z,98827.75
2019-02-11T01:28:53.980Z,98815.52
2019-02-11T01:31:26.268Z,98815.95
2019-02-11T01:33:59.600Z,98818.56
2019-02-11T01:36:31.892Z,98815.53
2019-02-11T01:39:05.632Z,98815.52
2019-02-11T01:41:37.931Z,98805.03
2019-02-11T01:44:10.187Z,98800.66
2019-02-11T01:46:42.456Z,98795.43
2019-02-11T01:49:14.728Z,98801.12
2019-02-11T01:51:47.124Z,98804.61
2019-02-11T01:54:19.461Z,98787.17
2019-02-11T01:56:51.781Z,98783.72
2019-02-11T01:59:24.109Z,98778.49
2019-02-11T02:01:56.605Z,98766.73
2019-02-11T02:04:28.989Z,98775.95
2019-02-11T02:07:01.373Z,98781.63
2019-02-11T02:09:33.703Z,98760.24
2019-02-11T02:12:06.065Z,98758.95
2019-02-11T02:14:38.315Z,98769.88
2019-02-11T02:17:12.083Z,98761.66
2019-02-11T02:19:44.396Z,98762.59
2019-02-11T02:22:16.680Z,98775.27
2019-02-11T02:24:48.979Z,98761.87
2019-02-11T02:27:28.755Z,98767.55
2019-02-11T02:30:01.017Z,98774.53
2019-02-11T02:32:33.365Z,98785.44
2019-02-11T02:35:05.677Z,98790.73
2019-02-11T02:37:38.005Z,98790.66
2019-02-11T02:40:11.420Z,98781.05
2019-02-11T02:42:43.764Z,98777.01
2019-02-11T02:45:15.998Z,98771.74
2019-02-11T02:47:48.324Z,98770.00
2019-02-11T02:50:20.868Z,98764.70
2019-02-11T02:52:53.142Z,98758.16
2019-02-11T02:55:25.485Z,98757.66
2019-02-11T02:57:57.707Z,98759.39
2019-02-11T03:00:29.959Z,98749.36
2019-02-11T03:03:02.222Z,98737.58
2019-02-11T03:05:34.544Z,98739.74
2019-02-11T03:08:06.800Z,98732.27
2019-02-11T03:10:39.102Z,98739.69
2019-02-11T03:13:11.438Z,98739.66
2019-02-11T03:15:43.788Z,98750.52
2019-02-11T03:18:16.107Z,98739.16
2019-02-11T03:20:48.428Z,98733.85
2019-02-11T03:23:20.789Z,98739.93
2019-02-11T03:25:53.118Z,98744.68
2019-02-11T03:28:25.528Z,98747.72
2019-02-11T03:30:57.793Z,98754.24
2019-02-11T03:33:30.031Z,98749.86
2019-02-11T03:36:02.280Z,98741.09
2019-02-11T03:38:34.514Z,98741.52
2019-02-11T03:41:06.838Z,98747.62
2019-02-11T03:43:39.155Z,98766.02
2019-02-11T03:46:11.406Z,98758.09
2019-02-11T03:48:43.627Z,98762.44
2019-02-11T03:51:15.990Z,98762.89
2019-02-11T03:53:48.270Z,98771.19
2019-02-11T03:56:20.570Z,98772.48
2019-02-11T03:58:52.924Z,98771.62
2019-02-11T04:01:25.208Z,98774.31
2019-02-11T04:03:58.612Z,98782.98
2019-02-11T04:06:30.964Z,98777.80
2019-02-11T04:09:04.524Z,98780.86
2019-02-11T04:11:37.178Z,98775.63
2019-02-11T04:14:09.457Z,98777.01
2019-02-11T04:16:41.733Z,98769.18
2019-02-11T04:19:14.151Z,98756.61
2019-02-11T04:21:46.396Z,98758.00
2019-02-11T04:24:18.640Z,98768.55
2019-02-11T04:26:51.490Z,98776.91
2019-02-11T04:29:23.849Z,98781.36
2019-02-11T04:31:56.093Z,98785.34
2019-02-11T04:34:28.387Z,98788.84
2019-02-11T04:37:00.705Z,98797.94
2019-02-11T04:39:32.959Z,98799.67
2019-02-11T04:42:05.335Z,98802.23
2019-02-11T04:44:37.682Z,98803.53
2019-02-11T04:47:09.912Z,98808.77
2019-02-11T04:49:42.176Z,98810.08
2019-02-11T04:52:14.568Z,98815.88
2019-02-11T04:54:46.958Z,98829.48
2019-02-11T04:57:19.229Z,98835.28
2019-02-11T04:59:51.578Z,98828.04
2019-02-11T05:02:23.904Z,98835.52
2019-02-11T05:04:56.222Z,98830.77
2019-02-11T05:07:28.545Z,98828.61
2019-02-11T05:10:00.816Z,98832.14
2019-02-11T05:12:33.262Z,98833.88
2019-02-11T05:15:08.762Z,98834.33
2019-02-11T05:17:52.550Z,98827.45
2019-02-11T05:20:27.167Z,98827.45
2019-02-11T05:22:59.427Z,98829.64
2019-02-11T05:25:31.797Z,98829.64
2019-02-11T05:28:04.237Z,98836.66
2019-02-11T05:30:36.542Z,98846.23
2019-02-11T05:33:09.064Z,98847.11
2019-02-11T05:35:41.434Z,98848.45
2019-02-11T05:38:13.694Z,98865.87
2019-02-11T05:40:46.122Z,98861.05
2019-02-11T05:43:18.403Z,98865.84
2019-02-11T05:45:58.031Z,98871.95
2019-02-11T05:48:30.435Z,98875.03
2019-02-11T05:51:03.032Z,98881.61
2019-02-11T05:53:35.394Z,98876.46
2019-02-11T05:56:07.802Z,98890.00
2019-02-11T05:58:40.142Z,98896.59
2019-02-11T06:01:14.853Z,98905.30
2019-02-11T06:03:47.222Z,98909.67
2019-02-11T06:06:19.558Z,98918.37
2019-02-11T06:08:52.027Z,98928.41
2019-02-11T06:11:24.383Z,98941.87
2019-02-11T06:13:56.827Z,98951.02
2019-02-11T06:16:29.159Z,98964.09
2019-02-11T06:19:01.584Z,98967.98
2019-02-11T06:21:33.926Z,98975.38
2019-02-11T06:24:06.449Z,98980.16
2019-02-11T06:26:38.732Z,98989.32
2019-02-11T06:29:11.121Z,98981.97
2019-02-11T06:31:43.574Z,98992.40
2019-02-11T06:34:16.431Z,99005.02
2019-02-11T06:36:50.281Z,99016.78
2019-02-11T06:39:22.563Z,99024.19
2019-02-11T06:41:54.776Z,99031.58
2019-02-11T06:44:27.145Z,99042.02
2019-02-11T06:46:59.500Z,99042.45
2019-02-11T06:49:31.908Z,99049.43
2019-02-11T06:52:06.309Z,99053.75
2019-02-11T06:54:38.573Z,99055.52
2019-02-11T06:57:10.942Z,99064.22
2019-02-11T06:59:43.295Z,99065.92
2019-02-11T07:02:17.119Z,99077.70
2019-02-11T07:04:49.446Z,99079.41
2019-02-11T07:07:21.708Z,99080.28
2019-02-11T07:09:53.960Z,99098.10
2019-02-11T07:12:26.320Z,99096.38
2019-02-11T07:14:58.672Z,99100.27
2019-02-11T07:17:30.936Z,99112.91
2019-02-11T07:20:03.370Z,99123.34
2019-02-11T07:22:35.700Z,99132.92
2019-02-11T07:25:08.721Z,99132.02
2019-02-11T07:27:42.083Z,99133.32
2019-02-11T07:30:15.260Z,99140.27
2019-02-11T07:32:47.685Z,99154.20
2019-02-11T07:35:20.030Z,99155.45
2019-02-11T07:37:52.390Z,99160.62
2019-02-11T07:40:27.202Z,99172.78
2019-02-11T07:43:09.654Z,99173.63
2019-02-11T07:46:12.500Z,99182.77
2019-02-11T07:48:45.287Z,99184.08
2019-02-11T07:51:23.723Z,99200.56
2019-02-11T07:53:59.440Z,99207.06
2019-02-11T07:56:32.134Z,99212.28
2019-02-11T07:59:05.864Z,99225.28
2019-02-11T08:01:39.949Z,99225.68
2019-02-11T08:04:14.074Z,99234.79
2019-02-11T08:06:47.028Z,99240.82
2019-02-11T08:09:19.873Z,99246.89
2019-02-11T08:11:56.530Z,99251.62
2019-02-11T08:14:32.492Z,99258.98
2019-02-11T08:17:05.063Z,99266.82
2019-02-11T08:19:37.460Z,99279.85
2019-02-11T08:22:10.080Z,99278.16
2019-02-11T08:24:44.044Z,99300.33
2019-02-11T08:27:17.937Z,99298.98
2019-02-11T08:29:50.562Z,99316.32
2019-02-11T08:32:22.980Z,99327.11
2019-02-11T08:34:55.986Z,99338.27
2019-02-11T08:37:28.368Z,99346.35
2019-02-11T08:40:00.786Z,99353.49
2019-02-11T08:42:33.449Z,99360.40
2019-02-11T08:45:06.790Z,99371.28
2019-02-11T08:47:39.274Z,99381.25
2019-02-11T08:50:12.819Z,99379.50
2019-02-11T08:52:45.399Z,99394.35
2019-02-11T08:55:17.919Z,99397.92
2019-02-11T08:57:52.652Z,99394.02
2019-02-11T09:00:25.103Z,99412.34
2019-02-11T09:02:57.496Z,99408.91
2019-02-11T09:05:29.987Z,99419.41
2019-02-11T09:08:02.411Z,99422.91
2019-02-11T09:10:34.760Z,99429.15
2019-02-11T09:13:07.345Z,99434.38
2019-02-11T09:15:39.647Z,99440.55
2019-02-11T09:18:12.039Z,99446.25
2019-02-11T09:20:44.374Z,99449.81
2019-02-11T09:23:16.710Z,99447.27
2019-02-11T09:25:49.064Z,99456.39
2019-02-11T09:28:21.503Z,99454.35
2019-02-11T09:30:54.862Z,99464.45
2019-02-11T09:33:38.489Z,99461.88
2019-02-11T09:36:19.941Z,99470.16
2019-02-11T09:38:54.209Z,99485.80
2019-02-11T09:41:26.981Z,99480.58
2019-02-11T09:43:59.446Z,99496.38
2019-02-11T09:46:31.877Z,99497.73
2019-02-11T09:49:04.374Z,99502.50
2019-02-11T09:51:40.632Z,99514.75
2019-02-11T09:54:13.053Z,99510.91
2019-02-11T09:56:46.314Z,99520.97
2019-02-11T09:59:18.898Z,99523.63
2019-02-11T10:01:51.827Z,99519.77
2019-02-11T10:04:24.401Z,99527.20
2019-02-11T10:06:56.970Z,99531.17
2019-02-11T10:09:29.875Z,99529.03
2019-02-11T10:12:02.392Z,99532.23
2019-02-11T10:14:34.658Z,99525.75
2019-02-11T10:17:29.542Z,99538.00
2019-02-11T10:19:54.368Z,99540.28
2019-02-11T10:22:27.544Z,99546.39
2019-02-11T10:25:00.276Z,99551.58
2019-02-11T10:27:34.322Z,99552.90
2019-02-11T10:30:10.441Z,99554.17
2019-02-11T10:32:45.089Z,99560.27
2019-02-11T10:35:18.061Z,99572.92
2019-02-11T10:37:50.601Z,99562.90
2019-02-11T10:40:22.927Z,99576.88
2019-02-11T10:42:55.261Z,99582.16
2019-02-11T10:45:36.262Z,99587.38
2019-02-11T10:48:01.790Z,99589.11
2019-02-11T10:50:34.180Z,99592.61
2019-02-11T10:53:06.510Z,99598.69
2019-02-11T10:55:38.936Z,99601.27
2019-02-11T10:58:13.714Z,99603.47
2019-02-11T11:00:46.009Z,99610.44
2019-02-11T11:03:18.496Z,99619.19
2019-02-11T11:05:50.975Z,99628.34
2019-02-11T11:08:23.412Z,99625.73
2019-02-11T11:10:55.820Z,99618.73
2019-02-11T11:13:29.344Z,99632.69
2019-02-11T11:16:01.678Z,99632.20
2019-02-11T11:18:34.043Z,99631.77
2019-02-11T11:21:08.357Z,99636.99
2019-02-11T11:23:40.837Z,99644.82
2019-02-11T11:26:13.425Z,99643.97
2019-02-11T11:28:45.778Z,99649.16
2019-02-11T11:31:18.174Z,99666.58
2019-02-11T11:33:50.570Z,99654.82
2019-02-11T11:36:23.071Z,99660.09
2019-02-11T11:38:55.636Z,99671.88
2019-02-11T11:41:27.994Z,99663.59
2019-02-11T11:44:00.438Z,99684.12
2019-02-11T11:46:45.661Z,99680.16
2019-02-11T11:49:06.811Z,99686.69
2019-02-11T11:51:40.608Z,99693.22
2019-02-11T11:54:12.952Z,99694.13
2019-02-11T11:56:46.355Z,99692.36
2019-02-11T11:59:18.759Z,99692.40
2019-02-11T12:01:51.036Z,99688.95
2019-02-11T12:04:23.527Z,99712.04
2019-02-11T12:06:56.767Z,99706.78
2019-02-11T12:09:29.239Z,99711.96
2019-02-11T12:12:01.637Z,99716.30
2019-02-11T12:14:36.159Z,99729.33
2019-02-11T12:17:08.457Z,99737.14
2019-02-11T12:19:40.893Z,99736.66
2019-02-11T12:22:13.536Z,99746.22
2019-02-11T12:24:45.882Z,99749.73
2019-02-11T12:27:18.135Z,99753.33
2019-02-11T12:29:50.653Z,99757.61
2019-02-11T12:32:22.926Z,99761.16
2019-02-11T12:34:55.217Z,99768.16
2019-02-11T12:37:27.643Z,99778.53
2019-02-11T12:39:59.962Z,99784.58
2019-02-11T12:42:32.298Z,99786.36
2019-02-11T12:45:04.557Z,99778.49
2019-02-11T12:47:36.961Z,99792.00
2019-02-11T12:50:10.787Z,99819.84
2019-02-11T12:52:43.296Z,99804.27
2019-02-11T12:55:18.471Z,99789.76
2019-02-11T12:57:50.997Z,99794.66
2019-02-11T13:00:23.719Z,99799.17
2019-02-11T13:02:56.090Z,99800.55
2019-02-11T13:05:44.080Z,99804.87
2019-02-11T13:08:02.396Z,99800.11
2019-02-11T13:10:35.032Z,99797.60
2019-02-11T13:13:07.716Z,99808.55
2019-02-11T13:16:00.006Z,99814.30
2019-02-11T13:18:14.703Z,99814.80
2019-02-11T13:20:47.589Z,99818.81
2019-02-11T13:23:20.037Z,99833.23
2019-02-11T13:25:52.399Z,99833.27
2019-02-11T13:28:24.769Z,99840.20
2019-02-11T13:30:57.234Z,99840.20
2019-02-11T13:33:29.759Z,99841.06
2019-02-11T13:36:02.036Z,99850.20
2019-02-11T13:38:34.472Z,99861.95
2019-02-11T13:41:06.873Z,99871.11
2019-02-11T13:43:39.275Z,99867.61
2019-02-11T13:46:11.737Z,99871.55
2019-02-11T13:48:46.471Z,99881.20
2019-02-11T13:51:19.262Z,99883.38
2019-02-11T13:53:51.714Z,99876.86
2019-02-11T13:56:24.079Z,99883.42
2019-02-11T13:58:56.723Z,99896.53
2019-02-11T14:01:29.628Z,99886.94
2019-02-11T14:04:02.127Z,99897.81
2019-02-11T14:06:34.680Z,99903.05
2019-02-11T14:09:12.583Z,99907.38
2019-02-11T14:11:46.664Z,99919.58
2019-02-11T14:14:25.941Z,99917.40
2019-02-11T14:16:58.371Z,99930.02
2019-02-11T14:19:30.709Z,99933.91
2019-02-11T14:22:03.202Z,99944.34
2019-02-11T14:24:38.070Z,99954.73
2019-02-11T14:27:11.915Z,99965.59
2019-02-11T14:29:45.383Z,99973.17
2019-02-11T14:32:18.071Z,99988.51
2019-02-11T14:34:51.991Z,99996.25
2019-02-11T14:37:25.901Z,100002.73
2019-02-11T14:39:58.666Z,100017.45
2019-02-11T14:42:31.308Z,100021.29
2019-02-11T14:45:04.018Z,100029.07
2019-02-11T14:47:36.696Z,100031.15
2019-02-11T14:50:09.734Z,100049.25
2019-02-11T14:52:42.464Z,100030.04
2019-02-11T14:55:15.109Z,100041.36
2019-02-11T14:57:48.013Z,100048.77
2019-02-11T15:00:21.218Z,100049.66
2019-02-11T15:02:54.859Z,100048.28
2019-02-11T15:05:27.319Z,100057.91
2019-02-11T15:08:01.284Z,100048.34
2019-02-11T15:10:33.876Z,100056.72
2019-02-11T15:13:06.279Z,100064.19
2019-02-11T15:15:38.800Z,100070.66
2019-02-11T15:18:11.204Z,100072.48
2019-02-11T15:20:44.772Z,100078.19
2019-02-11T15:23:17.463Z,100084.28
2019-02-11T15:25:50.577Z,100091.21
2019-02-11T15:28:23.047Z,100105.45
2019-02-11T15:30:55.586Z,100099.16
2019-02-11T15:33:34.372Z,100108.53
2019-02-11T15:36:07.066Z,100114.59
2019-02-11T15:38:39.540Z,100122.75
2019-02-11T15:41:12.353Z,100132.27
2019-02-11T15:43:44.845Z,100146.59
2019-02-11T15:46:17.316Z,100161.75
2019-02-11T15:48:49.814Z,100166.52
2019-02-11T15:51:22.244Z,100173.04
2019-02-11T15:53:56.325Z,100173.00
2019-02-11T15:56:28.997Z,100171.80
2019-02-11T15:59:01.515Z,100173.99
2019-02-11T16:01:36.065Z,100184.44
2019-02-11T16:04:08.694Z,100196.59
2019-02-11T16:06:41.126Z,100194.09
2019-02-11T16:09:13.785Z,100205.95
2019-02-11T16:11:46.396Z,100212.55
2019-02-11T16:14:22.282Z,100213.86
2019-02-11T16:16:58.545Z,100233.81
2019-02-11T16:19:32.721Z,100234.66
2019-02-11T16:22:05.936Z,100245.88
2019-02-11T16:24:42.447Z,100251.13
2019-02-11T16:27:18.935Z,100256.39
2019-02-11T16:29:51.849Z,100256.31
2019-02-11T16:32:24.293Z,100266.75
2019-02-11T16:34:56.652Z,100277.61
2019-02-11T16:37:29.116Z,100268.41
2019-02-11T16:40:01.798Z,100277.11
2019-02-11T16:42:35.071Z,100278.42
2019-02-11T16:45:08.245Z,100285.83
2019-02-11T16:47:40.806Z,100303.72
2019-02-11T16:50:19.262Z,100298.53
2019-02-11T16:52:52.949Z,100309.81
2019-02-11T16:55:28.478Z,100313.69
2019-02-11T16:58:03.038Z,100326.20
2019-02-11T17:00:38.542Z,100326.58
2019-02-11T17:03:16.074Z,100338.57
2019-02-11T17:05:52.802Z,100337.56
2019-02-11T17:08:29.105Z,100343.38
2019-02-11T17:11:09.967Z,100345.72
2019-02-11T17:13:44.476Z,100351.27
2019-02-11T17:16:21.265Z,100357.70
2019-02-11T17:18:58.651Z,100358.67
2019-02-11T17:21:31.696Z,100361.61
2019-02-11T17:24:05.720Z,100359.29
2019-02-11T17:26:41.762Z,100371.41
2019-02-11T17:29:14.135Z,100381.75
2019-02-11T17:31:46.547Z,100384.82
2019-02-11T17:34:18.972Z,100390.08
2019-02-11T17:36:51.505Z,100393.16
2019-02-11T17:39:25.214Z,100406.66
2019-02-11T17:42:01.671Z,100407.41
2019-02-11T17:44:38.721Z,100415.66
2019-02-11T17:47:13.837Z,100421.80
2019-02-11T17:49:47.854Z,100425.23
2019-02-11T17:52:21.438Z,100427.37
2019-02-11T17:54:55.057Z,100437.77
2019-02-11T17:57:27.604Z,100439.91
2019-02-11T18:00:05.628Z,100448.24
2019-02-11T18:02:42.047Z,100446.38
2019-02-11T18:05:15.307Z,100450.30
2019-02-11T18:07:48.161Z,100453.32
2019-02-11T18:10:20.742Z,100459.83
2019-02-11T18:12:54.671Z,100461.13
2019-02-11T18:15:27.189Z,100466.25
2019-02-11T18:17:59.605Z,100480.59
2019-02-11T18:20:32.116Z,100488.47
2019-02-11T18:23:05.155Z,100501.45
2019-02-11T18:25:40.496Z,100504.11
2019-02-11T18:28:12.916Z,100504.84
2019-02-11T18:30:45.398Z,100507.71
2019-02-11T18:33:17.805Z,100519.86
2019-02-11T18:35:50.205Z,100518.87
2019-02-11T18:38:22.687Z,100522.94
2019-02-11T18:40:55.243Z,100524.55
2019-02-11T18:43:27.924Z,100537.11
2019-02-11T18:46:03.503Z,100530.61
2019-02-11T18:48:35.980Z,100546.25
2019-02-11T18:51:08.775Z,100551.52
2019-02-11T18:53:42.852Z,100548.44
2019-02-11T18:56:15.540Z,100549.01
2019-02-11T18:58:48.580Z,100543.27
2019-02-11T19:01:23.814Z,100553.22
2019-02-11T19:03:56.969Z,100546.66
2019-02-11T19:06:29.470Z,100553.17
2019-02-11T19:09:06.318Z,100557.55
2019-02-11T19:11:42.373Z,100554.06
2019-02-11T19:14:15.058Z,100572.20
2019-02-11T19:16:48.709Z,100566.46
2019-02-11T19:19:21.322Z,100568.02
2019-02-11T19:21:53.941Z,100585.25
2019-02-11T19:24:26.352Z,100596.87
2019-02-11T19:26:58.878Z,100602.02
2019-02-11T19:29:31.752Z,100610.20
2019-02-11T19:32:05.967Z,100621.75
2019-02-11T19:34:38.475Z,100623.47
2019-02-11T19:37:11.367Z,100630.41
2019-02-11T19:39:46.883Z,100635.54
2019-02-11T19:42:20.417Z,100643.42
2019-02-11T19:44:55.158Z,100644.27
2019-02-11T19:47:27.668Z,100643.25
2019-02-11T19:50:00.410Z,100656.38
2019-02-11T19:52:34.606Z,100662.89
2019-02-11T19:55:08.306Z,100663.75
2019-02-11T19:57:43.330Z,100660.31
2019-02-11T20:00:20.477Z,100662.09
2019-02-11T20:02:53.341Z,100673.03
2019-02-11T20:05:27.196Z,100670.79
2019-02-11T20:08:04.845Z,100674.28
2019-02-11T20:10:43.765Z,100680.98
2019-02-11T20:13:22.513Z,100676.29
2019-02-11T20:15:57.439Z,100694.53
2019-02-11T20:18:30.013Z,100689.81
2019-02-11T20:21:09.420Z,100703.00
2019-02-11T20:23:50.965Z,100710.11
2019-02-11T20:26:28.969Z,100716.99
2019-02-11T20:29:11.409Z,100726.64
2019-02-11T20:31:45.641Z,100743.00
2019-02-11T20:34:21.509Z,100740.58
2019-02-11T20:37:04.985Z,100752.17
2019-02-11T20:39:39.525Z,100767.44
2019-02-11T20:42:41.029Z,100769.44
2019-02-11T20:45:24.039Z,100764.23
2019-02-11T20:48:03.254Z,100768.50
2019-02-11T20:50:40.322Z,100767.12
2019-02-11T20:53:13.514Z,100775.62
2019-02-11T20:55:48.624Z,100780.28
2019-02-11T20:58:23.565Z,100780.36
2019-02-11T21:00:56.220Z,100787.73
2019-02-11T21:03:28.997Z,100780.28
2019-02-11T21:06:03.463Z,100800.04
2019-02-11T21:08:36.890Z,100802.65
2019-02-11T21:11:12.578Z,100802.09
2019-02-11T21:13:45.422Z,100809.05
2019-02-11T21:16:17.917Z,100801.14
2019-02-11T21:18:50.617Z,100803.83
2019-02-11T21:21:25.991Z,100808.69
2019-02-11T21:23:58.477Z,100812.18
2019-02-11T21:26:32.368Z,100805.67
2019-02-11T21:29:05.028Z,100811.83
2019-02-11T21:31:38.178Z,100812.32
2019-02-11T21:34:12.297Z,100813.27
2019-02-11T21:36:44.893Z,100819.23
2019-02-11T21:39:18.196Z,100828.78
2019-02-11T21:41:51.369Z,100817.95
2019-02-11T21:44:24.215Z,100834.05
2019-02-11T21:46:56.772Z,100808.83
2019-02-11T21:49:31.229Z,100825.52
2019-02-11T21:52:03.692Z,100821.02
2019-02-11T21:54:35.904Z,100830.73
2019-02-11T21:57:08.242Z,100838.02
2019-02-11T21:59:40.495Z,100837.33
2019-02-11T22:02:12.765Z,100850.28
2019-02-11T22:04:45.070Z,100841.04
2019-02-11T22:07:17.442Z,100846.61
2019-02-11T22:09:49.768Z,100845.64
2019-02-11T22:12:22.026Z,100848.13
2019-02-11T22:14:54.566Z,100853.39
2019-02-11T22:17:27.033Z,100869.17
2019-02-11T22:19:59.391Z,100866.78
2019-02-11T22:22:31.727Z,100864.85
2019-02-11T22:25:04.222Z,100877.20
2019-02-11T22:27:36.511Z,100887.95
2019-02-11T22:30:13.779Z,100890.02
2019-02-11T22:32:46.379Z,100899.88
2019-02-11T22:35:18.660Z,100905.77
2019-02-11T22:37:51.081Z,100911.80
2019-02-11T22:40:23.480Z,100919.14
2019-02-11T22:42:55.733Z,100917.36
2019-02-11T22:45:30.211Z,100933.78
2019-02-11T22:48:04.033Z,100941.45
2019-02-11T22:50:42.974Z,100950.97
2019-02-11T22:53:10.424Z,100950.59
2019-02-11T22:55:42.722Z,100950.50
2019-02-11T22:58:15.065Z,100946.69
2019-02-11T23:00:59.972Z,100958.47
2019-02-11T23:03:35.824Z,100960.50
2019-02-11T23:06:09.225Z,100965.55
2019-02-11T23:08:42.707Z,100977.81
2019-02-11T23:11:15.091Z,100975.97
2019-02-11T23:13:47.370Z,100976.86
2019-02-11T23:16:19.680Z,100986.86
2019-02-11T23:18:53.045Z,100992.00
2019-02-11T23:21:25.353Z,100998.00
2019-02-11T23:23:57.660Z,101002.84
2019-02-11T23:26:29.947Z,101003.50
2019-02-11T23:29:02.284Z,101003.27
2019-02-11T23:31:34.558Z,101011.91
2019-02-11T23:34:06.826Z,101011.30
2019-02-11T23:36:39.090Z,101018.83
2019-02-11T23:39:15.396Z,101025.36
2019-02-11T23:41:51.409Z,101029.84
2019-02-11T23:44:23.673Z,101026.51
2019-02-11T23:46:55.987Z,101029.97
2019-02-11T23:49:28.250Z,101030.13
2019-02-11T23:52:00.502Z,101032.52
2019-02-11T23:54:32.725Z,101046.15
2019-02-11T23:57:05.017Z,101030.96
2019-02-11T23:59:37.377Z,101037.13
